Time;durP1;ratioP1;P1;durP2;ratioP2;P2;SDS_P1;SDS_P2;PMS_P1;PMS_P2;Temp;Humidity;BMP_temperature;BMP_pressure;BME280_temperature;BME280_humidity;BME280_pressure;Samples;Min_cycle;Max_cycle;Signal;HPM_P1;HPM_P2
2022/01/18 00:01:28;;;;;;;32.75;7.93;;;;;;;6.43;83.52;103751.28;4993542;28;20030;-61
2022/01/18 00:03:54;;;;;;;28.20;7.00;;;;;;;6.47;82.90;103755.03;4993483;28;20117;-61
2022/01/18 00:06:20;;;;;;;24.00;7.00;;;;;;;6.46;83.49;103751.47;4993534;28;20097;-61
2022/01/18 00:08:45;;;;;;;24.52;7.00;;;;;;;6.42;83.49;103754.66;4993421;28;20035;-62
2022/01/18 00:11:11;;;;;;;22.17;6.43;;;;;;;6.47;83.21;103768.19;4993717;28;20029;-61
2022/01/18 00:13:43;;;;;;;34.40;7.95;;;;;;;6.52;83.69;103766.81;4993740;28;20026;-61
2022/01/18 00:16:23;;;;;;;19.73;6.70;;;;;;;6.48;83.32;103768.28;4993568;28;20030;-61
2022/01/18 00:18:51;;;;;;;16.10;6.10;;;;;;;6.42;83.90;103764.28;4993448;28;20035;-61
2022/01/18 00:21:52;;;;;;;25.45;7.22;;;;;;;6.35;84.23;103770.78;4993273;28;20081;-61
2022/01/18 00:24:03;;;;;;;24.08;6.78;;;;;;;6.35;84.63;103762.00;4992764;28;20488;-61
2022/01/18 00:26:31;;;;;;;25.38;6.43;;;;;;;6.35;84.73;103760.28;4993412;28;20058;-61
2022/01/18 00:29:08;;;;;;;23.27;6.53;;;;;;;6.43;85.21;103760.88;4993334;28;20029;-61
2022/01/18 00:31:43;;;;;;;26.23;6.85;;;;;;;6.45;84.59;103760.16;4993320;28;20081;-61
2022/01/18 00:34:19;;;;;;;23.58;6.20;;;;;;;6.46;83.76;103768.94;4997193;28;20380;-61
2022/01/18 00:39:13;;;;;;;26.20;6.28;;;;;;;6.35;85.39;103781.31;4997105;28;20027;-61
2022/01/18 00:41:40;;;;;;;28.90;7.25;;;;;;;6.36;85.39;103777.88;4997209;28;20379;-61
2022/01/18 00:44:06;;;;;;;28.30;6.43;;;;;;;6.45;85.22;103785.53;4996909;28;20113;-61
2022/01/18 00:46:32;;;;;;;18.13;6.07;;;;;;;6.54;85.42;103786.19;4996610;28;20030;-61
2022/01/18 00:49:01;;;;;;;23.40;6.32;;;;;;;6.60;85.02;103777.88;4996892;28;20038;-61
2022/01/18 00:51:28;;;;;;;24.25;5.97;;;;;;;6.66;84.86;103781.84;4996945;28;20096;-61
2022/01/18 00:53:56;;;;;;;21.23;6.10;;;;;;;6.71;84.72;103790.06;4997072;28;20118;-61
2022/01/18 00:56:25;;;;;;;23.38;6.43;;;;;;;6.71;84.49;103792.72;4996607;28;20046;-61
2022/01/18 00:58:52;;;;;;;29.65;6.65;;;;;;;6.73;84.50;103802.53;4996779;28;20034;-61
2022/01/18 01:01:19;;;;;;;30.35;7.38;;;;;;;6.76;84.76;103802.75;4996494;28;20141;-61
2022/01/18 01:03:45;;;;;;;29.08;6.53;;;;;;;6.83;84.79;103801.50;4996495;28;20038;-62
2022/01/18 01:06:11;;;;;;;25.73;6.57;;;;;;;6.85;84.09;103798.97;4996714;28;20029;-61
2022/01/18 01:08:37;;;;;;;24.92;6.10;;;;;;;6.88;84.38;103788.69;4996524;28;20098;-61
2022/01/18 01:11:04;;;;;;;24.88;5.95;;;;;;;6.90;84.78;103790.66;4996613;28;20116;-61
2022/01/18 01:13:31;;;;;;;19.20;6.22;;;;;;;6.88;84.42;103791.31;4996428;28;20026;-61
2022/01/18 01:16:17;;;;;;;27.33;7.05;;;;;;;6.86;84.58;103778.06;4996205;28;20037;-61
2022/01/18 01:34:49;;;;;;;29.73;6.78;;;;;;;6.78;85.11;103779.22;4995999;28;20034;-62
2022/01/18 01:45:39;;;;;;;36.58;7.45;;;;;;;6.84;86.07;103778.75;4995438;28;20038;-61
2022/01/18 01:48:05;;;;;;;27.08;6.70;;;;;;;6.78;86.04;103782.75;4995817;28;20026;-61
2022/01/18 01:51:01;;;;;;;26.20;6.80;;;;;;;6.72;86.25;103781.38;4995675;28;20106;-61
2022/01/18 01:53:21;;;;;;;32.30;7.25;;;;;;;6.75;86.18;103776.38;4995143;28;20074;-61
2022/01/18 01:55:48;;;;;;;33.22;6.85;;;;;;;6.78;85.94;103774.88;4995409;28;20117;-61
2022/01/18 01:58:15;;;;;;;29.42;7.07;;;;;;;6.82;85.95;103773.41;4995832;28;20105;-61
2022/01/18 02:00:44;;;;;;;24.98;6.63;;;;;;;6.87;86.64;103776.34;4995504;28;20054;-61
2022/01/18 02:03:10;;;;;;;26.27;6.65;;;;;;;6.87;85.96;103785.16;4995457;28;20049;-61
2022/01/18 02:05:35;;;;;;;26.58;7.43;;;;;;;6.82;85.51;103794.41;4978146;28;20031;-61
2022/01/18 02:08:01;;;;;;;26.67;7.53;;;;;;;6.72;85.71;103797.16;4995412;28;20399;-61
2022/01/18 02:10:26;;;;;;;32.40;8.02;;;;;;;6.59;86.18;103795.34;4995260;28;20391;-61
2022/01/18 02:12:52;;;;;;;21.95;6.80;;;;;;;6.58;86.76;103790.88;4995327;28;20054;-61
2022/01/18 02:15:19;;;;;;;25.65;6.90;;;;;;;6.58;86.34;103787.34;4995306;28;20053;-61
2022/01/18 02:23:18;;;;;;;22.20;6.70;;;;;;;6.63;86.90;103792.13;4995083;28;20964;-61
2022/01/18 02:25:43;;;;;;;34.67;8.00;;;;;;;6.62;86.41;103789.41;4995227;28;20022;-61
2022/01/18 02:28:10;;;;;;;29.20;7.22;;;;;;;6.51;86.41;103797.41;4995267;28;20022;-61
2022/01/18 02:30:35;;;;;;;28.35;7.53;;;;;;;6.45;87.28;103788.16;4995057;28;20500;-61
2022/01/18 02:33:00;;;;;;;33.70;7.90;;;;;;;6.44;87.17;103784.63;4994915;28;20023;-61
2022/01/18 02:35:26;;;;;;;32.50;8.00;;;;;;;6.48;87.21;103786.66;4994746;28;20027;-62
2022/01/18 02:37:55;;;;;;;26.45;7.68;;;;;;;6.53;87.67;103785.28;4994748;28;20041;-61
2022/01/18 02:40:20;;;;;;;29.88;7.45;;;;;;;6.59;87.30;103778.66;4994970;28;20102;-61
2022/01/18 02:42:56;;;;;;;37.05;7.85;;;;;;;6.68;86.91;103779.34;4994706;28;20174;-61
2022/01/18 02:45:21;;;;;;;31.58;7.70;;;;;;;6.71;87.00;103767.34;4994836;28;20034;-61
2022/01/18 02:47:47;;;;;;;29.08;7.72;;;;;;;6.75;86.29;103773.75;4994607;28;20026;-61
2022/01/18 02:50:13;;;;;;;29.55;7.97;;;;;;;6.79;86.77;103773.16;4994633;28;20030;-61
2022/01/18 02:52:39;;;;;;;34.53;8.43;;;;;;;6.78;86.36;103766.09;4994350;28;20113;-61
2022/01/18 02:55:05;;;;;;;37.47;7.63;;;;;;;6.78;86.52;103766.09;4994546;28;20034;-61
2022/01/18 02:57:56;;;;;;;28.90;7.65;;;;;;;6.83;86.29;103772.59;4994425;28;20050;-61
2022/01/18 03:00:42;;;;;;;35.40;8.13;;;;;;;6.85;86.16;103768.38;4994416;28;20034;-61
2022/01/18 03:03:13;;;;;;;33.55;7.38;;;;;;;6.85;86.18;103773.63;4994156;28;20042;-61
2022/01/18 03:05:43;;;;;;;34.83;7.68;;;;;;;6.86;86.69;103767.56;4994254;28;20111;-61
2022/01/18 03:08:11;;;;;;;26.35;7.68;;;;;;;6.86;87.00;103771.91;4994204;28;20460;-61
2022/01/18 03:10:38;;;;;;;30.08;7.72;;;;;;;6.86;86.63;103775.44;4994269;28;20030;-61
2022/01/18 03:13:04;;;;;;;27.58;7.75;;;;;;;6.86;86.33;103766.66;4994221;28;20120;-61
2022/01/18 03:15:31;;;;;;;33.53;7.90;;;;;;;6.86;86.42;103769.28;4994172;28;20124;-61
2022/01/18 03:17:56;;;;;;;28.98;7.88;;;;;;;6.84;85.97;103768.25;4994133;28;20022;-61
2022/01/18 03:20:23;;;;;;;35.20;8.00;;;;;;;6.81;86.93;103775.88;4994366;28;20507;-61
2022/01/18 03:22:50;;;;;;;32.92;7.75;;;;;;;6.80;86.49;103776.69;4993895;28;20127;-61
2022/01/18 03:28:05;;;;;;;28.00;7.75;;;;;;;6.86;86.70;103795.56;4994141;28;20035;-62
2022/01/18 03:30:38;;;;;;;27.85;8.18;;;;;;;6.88;86.41;103786.97;4993919;28;20018;-62
2022/01/18 03:33:06;;;;;;;24.55;7.40;;;;;;;6.87;85.62;103787.78;4993956;28;20456;-61
2022/01/18 03:35:32;;;;;;;30.92;7.47;;;;;;;6.85;86.27;103783.19;4993897;28;20022;-61
2022/01/18 03:37:58;;;;;;;32.53;8.10;;;;;;;6.76;85.68;103792.22;4993800;28;20034;-61
2022/01/18 03:40:23;;;;;;;31.58;8.20;;;;;;;6.75;86.80;103785.16;4993829;28;20045;-61
2022/01/18 03:42:49;;;;;;;28.63;8.00;;;;;;;6.79;86.53;103783.69;4993803;28;20018;-62
2022/01/18 03:45:24;;;;;;;31.83;8.38;;;;;;;6.83;86.43;103785.72;4993914;28;20464;-61
2022/01/18 03:47:55;;;;;;;29.30;8.55;;;;;;;6.84;86.14;103784.00;4993995;28;20070;-61
2022/01/18 03:50:21;;;;;;;25.10;8.10;;;;;;;6.83;86.02;103787.44;4993657;28;20042;-61
2022/01/18 03:52:47;;;;;;;27.73;8.05;;;;;;;6.80;86.46;103789.84;4993608;28;20039;-61
2022/01/18 03:55:15;;;;;;;31.15;8.55;;;;;;;6.76;86.14;103780.81;4993570;28;20026;-61
2022/01/18 03:57:40;;;;;;;30.98;8.90;;;;;;;6.72;86.63;103792.84;4993510;28;20037;-61
2022/01/18 04:00:09;;;;;;;35.00;8.63;;;;;;;6.69;86.06;103789.06;4993640;28;20030;-61
2022/01/18 04:02:35;;;;;;;30.13;9.07;;;;;;;6.66;87.13;103800.25;4993582;28;20069;-61
2022/01/18 04:05:03;;;;;;;25.10;7.47;;;;;;;6.71;87.12;103805.84;4993554;28;20030;-61
2022/01/18 04:07:29;;;;;;;38.78;8.80;;;;;;;6.70;86.29;103809.28;4994874;28;20085;-61
2022/01/18 04:09:54;;;;;;;31.30;9.02;;;;;;;6.74;86.35;103806.09;4997611;28;20023;-61
2022/01/18 04:12:20;;;;;;;34.95;8.85;;;;;;;6.74;86.56;103801.72;4997506;28;20089;-61
2022/01/18 04:14:45;;;;;;;40.50;9.60;;;;;;;6.80;86.31;103813.50;4997570;28;20026;-61
2022/01/18 04:27:46;;;;;;;28.63;8.77;;;;;;;6.84;85.83;103815.56;4997645;28;20107;-61
2022/01/18 04:30:11;;;;;;;32.47;9.43;;;;;;;6.80;85.67;103819.66;4997285;28;20031;-61
2022/01/18 04:32:37;;;;;;;33.65;9.30;;;;;;;6.77;85.42;103817.75;4997321;28;20026;-61
2022/01/18 04:35:03;;;;;;;33.22;9.65;;;;;;;6.78;85.70;103810.75;4997255;28;20034;-61
2022/01/18 04:37:29;;;;;;;29.70;9.02;;;;;;;6.76;85.88;103813.25;4996801;28;20026;-61
2022/01/18 04:39:54;;;;;;;34.72;9.27;;;;;;;6.78;86.16;103814.31;4997319;28;20023;-61
2022/01/18 04:42:38;;;;;;;37.28;9.52;;;;;;;6.81;85.37;103812.69;4997096;28;20490;-61
2022/01/18 04:50:32;;;;;;;36.17;9.02;;;;;;;6.80;85.29;103819.66;4997000;28;20050;-61
2022/01/18 04:52:58;;;;;;;30.00;9.10;;;;;;;6.78;85.92;103819.56;4996659;28;20038;-61
2022/01/18 04:55:30;;;;;;;32.28;9.27;;;;;;;6.68;86.19;103814.44;4996584;28;20026;-61
2022/01/18 04:57:56;;;;;;;34.58;9.35;;;;;;;6.64;86.30;103814.09;4980487;28;20030;-61
2022/01/18 05:00:22;;;;;;;38.17;9.63;;;;;;;6.65;86.69;103821.16;4996682;28;20498;-61
2022/01/18 05:02:48;;;;;;;33.28;9.73;;;;;;;6.66;86.44;103817.72;4996314;28;20500;-61
2022/01/18 05:05:24;;;;;;;30.95;9.05;;;;;;;6.69;85.83;103821.50;4996610;28;20057;-61
2022/01/18 05:07:55;;;;;;;33.33;9.82;;;;;;;6.68;85.98;103826.63;4996426;28;20026;-61
2022/01/18 05:10:23;;;;;;;29.10;9.35;;;;;;;6.65;86.15;103831.69;4996731;28;20026;-61
2022/01/18 05:12:52;;;;;;;25.77;9.10;;;;;;;6.65;86.91;103827.34;4996866;28;20049;-61
2022/01/18 05:15:44;;;;;;;28.27;9.65;;;;;;;6.62;85.51;103831.44;4996475;28;20026;-61
2022/01/18 05:23:04;;;;;;;27.65;9.35;;;;;;;6.55;86.21;103837.94;4996183;28;20035;-61
2022/01/18 05:25:30;;;;;;;24.45;10.27;;;;;;;6.52;85.89;103829.84;4996276;28;20102;-61
2022/01/18 05:27:57;;;;;;;26.08;9.18;;;;;;;6.56;86.18;103824.03;4996135;28;20043;-61
2022/01/18 05:30:23;;;;;;;27.63;9.45;;;;;;;6.56;85.87;103821.41;4996248;28;20042;-61
2022/01/18 05:32:50;;;;;;;25.88;9.30;;;;;;;6.52;85.81;103829.84;4996051;28;20136;-61
2022/01/18 05:35:15;;;;;;;25.55;9.63;;;;;;;6.57;85.63;103835.44;4996280;28;20088;-61
2022/01/18 05:37:41;;;;;;;30.00;10.65;;;;;;;6.56;85.69;103824.03;4996053;28;20468;-61
2022/01/18 05:40:08;;;;;;;23.00;9.45;;;;;;;6.53;85.57;103831.66;4996094;28;20377;-61
2022/01/18 05:42:33;;;;;;;24.58;9.43;;;;;;;6.53;86.32;103826.41;4995774;28;20088;-61
2022/01/18 05:44:58;;;;;;;24.40;8.82;;;;;;;6.56;86.18;103823.13;4995888;28;20435;-61
2022/01/18 05:47:24;;;;;;;29.63;9.05;;;;;;;6.61;86.02;103827.00;4995849;28;20110;-61
2022/01/18 05:49:50;;;;;;;23.80;8.85;;;;;;;6.62;86.22;103826.19;4995810;28;20062;-61
2022/01/18 05:52:15;;;;;;;25.55;9.73;;;;;;;6.59;85.99;103820.69;4995596;28;20053;-61
2022/01/18 05:54:41;;;;;;;24.48;9.00;;;;;;;6.60;86.02;103825.19;4995803;28;20023;-61
2022/01/18 05:57:07;;;;;;;27.75;10.23;;;;;;;6.56;85.52;103833.63;4995471;28;20042;-61
2022/01/18 05:59:38;;;;;;;27.38;9.20;;;;;;;6.56;86.40;103825.75;4995362;28;20043;-60
2022/01/18 06:07:48;;;;;;;24.90;9.13;;;;;;;6.62;85.72;103821.84;4995578;28;20049;-61
2022/01/18 06:10:13;;;;;;;23.70;8.60;;;;;;;6.63;85.54;103826.28;4995735;28;20027;-61
2022/01/18 06:12:40;;;;;;;19.73;8.73;;;;;;;6.66;85.03;103831.78;4995329;28;20034;-61
2022/01/18 06:15:06;;;;;;;27.00;10.43;;;;;;;6.62;84.60;103832.34;4995352;28;20041;-61
2022/01/18 06:17:32;;;;;;;27.92;8.77;;;;;;;6.64;85.46;103836.03;4995252;28;20069;-61
2022/01/18 06:19:57;;;;;;;26.83;9.18;;;;;;;6.67;85.75;103827.44;4995353;28;20026;-61
2022/01/18 06:22:23;;;;;;;28.25;9.13;;;;;;;6.61;85.18;103827.91;4995045;28;20034;-61
2022/01/18 06:24:49;;;;;;;24.48;9.13;;;;;;;6.58;85.64;103832.00;4995073;28;20459;-61
2022/01/18 06:27:14;;;;;;;26.65;8.93;;;;;;;6.55;85.16;103829.16;4995058;28;20030;-61
2022/01/18 06:29:39;;;;;;;22.80;8.38;;;;;;;6.55;85.55;103829.16;4994542;28;20026;-61
2022/01/18 06:32:06;;;;;;;26.42;9.18;;;;;;;6.53;85.57;103836.91;4995145;28;20468;-61
2022/01/18 06:34:32;;;;;;;24.35;8.40;;;;;;;6.53;85.10;103834.28;4994856;28;20522;-61
2022/01/18 06:36:57;;;;;;;27.75;9.30;;;;;;;6.51;85.23;103823.69;4994959;28;20022;-61
2022/01/18 06:39:23;;;;;;;25.70;8.73;;;;;;;6.47;86.08;103826.88;4994715;28;20105;-61
2022/01/18 06:41:48;;;;;;;24.55;9.07;;;;;;;6.43;85.21;103821.28;4994829;28;20018;-62
2022/01/18 06:44:14;;;;;;;25.67;9.02;;;;;;;6.42;85.41;103809.81;4994830;28;20080;-61
2022/01/18 06:46:40;;;;;;;31.25;9.02;;;;;;;6.41;86.61;103810.63;4994585;28;20037;-61
2022/01/18 06:49:06;;;;;;;23.95;9.40;;;;;;;6.41;85.71;103825.47;4994705;28;20053;-61
2022/01/18 06:51:32;;;;;;;27.45;9.23;;;;;;;6.44;85.92;103824.00;4994507;28;20030;-61
2022/01/18 06:53:58;;;;;;;27.05;9.32;;;;;;;6.47;86.24;103831.22;4994486;28;20058;-61
2022/01/18 06:56:25;;;;;;;25.88;8.82;;;;;;;6.54;85.79;103833.50;4994327;28;20558;-61
2022/01/18 06:58:51;;;;;;;26.33;8.75;;;;;;;6.56;85.52;103831.91;4994598;28;20030;-61
2022/01/18 07:01:16;;;;;;;25.20;8.88;;;;;;;6.60;85.35;103831.34;4994464;28;20018;-61
2022/01/18 07:03:42;;;;;;;25.83;7.95;;;;;;;6.61;85.52;103829.63;4994362;28;20026;-61
2022/01/18 07:06:08;;;;;;;21.90;8.07;;;;;;;6.61;85.65;103837.50;4994274;28;20034;-61
2022/01/18 07:08:34;;;;;;;26.60;9.40;;;;;;;6.53;85.14;103845.72;4994582;28;20026;-61
2022/01/18 07:11:00;;;;;;;26.17;9.32;;;;;;;6.57;85.57;103849.50;4994170;28;20468;-61
2022/01/18 07:13:25;;;;;;;22.70;8.40;;;;;;;6.57;85.93;103840.69;4994498;28;20030;-61
2022/01/18 07:15:51;;;;;;;26.48;8.68;;;;;;;6.61;85.70;103842.75;4994208;28;20022;-61
2022/01/18 07:18:16;;;;;;;33.85;9.70;;;;;;;6.55;85.49;103848.44;4994218;28;20034;-61
2022/01/18 07:20:42;;;;;;;28.60;8.68;;;;;;;6.55;85.23;103855.41;4994032;28;20387;-61
2022/01/18 07:23:11;;;;;;;30.83;9.00;;;;;;;6.57;85.23;103851.22;4993922;28;20038;-61
2022/01/18 07:25:42;;;;;;;30.42;9.40;;;;;;;6.47;85.45;103849.59;4993871;28;20023;-61
2022/01/18 07:28:09;;;;;;;31.13;10.48;;;;;;;6.45;86.31;103853.81;4994057;28;20038;-61
2022/01/18 07:30:35;;;;;;;27.13;9.32;;;;;;;6.46;85.85;103860.88;4993913;28;20435;-61
2022/01/18 07:33:01;;;;;;;33.17;9.88;;;;;;;6.50;86.10;103855.06;4993982;28;20109;-61
2022/01/18 07:35:27;;;;;;;31.58;9.85;;;;;;;6.55;85.25;103860.66;4993864;28;20109;-60
2022/01/18 07:37:53;;;;;;;38.00;10.30;;;;;;;6.53;85.19;103855.31;4993909;28;20515;-61
2022/01/18 07:40:18;;;;;;;30.10;9.70;;;;;;;6.51;85.66;103854.31;4993874;28;20022;-61
2022/01/18 07:42:44;;;;;;;28.92;9.82;;;;;;;6.51;85.25;103862.19;4992867;28;20431;-60
2022/01/18 07:45:10;;;;;;;35.13;10.32;;;;;;;6.47;84.95;103857.50;4993742;28;20388;-61
2022/01/18 07:47:35;;;;;;;24.23;9.57;;;;;;;6.45;85.25;103867.84;4993839;28;20113;-61
2022/01/18 07:50:01;;;;;;;36.05;10.85;;;;;;;6.39;85.77;103864.78;4993664;28;20022;-61
2022/01/18 07:52:26;;;;;;;28.58;10.10;;;;;;;6.37;85.76;103860.19;4993670;28;20569;-61
2022/01/18 07:54:52;;;;;;;34.28;11.10;;;;;;;6.37;85.60;103871.59;4993656;28;20468;-61
2022/01/18 07:57:19;;;;;;;31.35;10.23;;;;;;;6.37;85.73;103868.97;4993356;28;20051;-61
2022/01/18 07:59:45;;;;;;;28.38;10.18;;;;;;;6.35;86.10;103862.72;4993646;28;20041;-61
2022/01/18 08:02:10;;;;;;;24.70;9.48;;;;;;;6.42;86.52;103869.34;4993467;28;20027;-61
2022/01/18 08:04:36;;;;;;;27.73;10.35;;;;;;;6.43;85.91;103868.56;4993505;28;20472;-61
2022/01/18 08:07:02;;;;;;;33.83;10.57;;;;;;;6.45;86.67;103873.09;4993515;28;20026;-61
2022/01/18 08:09:28;;;;;;;24.70;9.50;;;;;;;6.53;86.58;103876.31;4993563;28;20031;-60
2022/01/18 08:11:53;;;;;;;29.33;10.75;;;;;;;6.53;85.97;103882.50;4993466;28;20117;-61
2022/01/18 08:14:19;;;;;;;28.98;10.15;;;;;;;6.56;86.18;103880.91;4993528;28;20034;-61
2022/01/18 08:19:11;;;;;;;22.85;9.40;;;;;;;6.61;85.99;103876.91;4993494;28;20387;-61
2022/01/18 08:21:37;;;;;;;22.30;8.50;;;;;;;6.64;85.92;103872.81;4993329;28;20049;-61
2022/01/18 08:24:03;;;;;;;23.85;9.05;;;;;;;6.63;85.60;103875.31;4993270;28;20117;-61
2022/01/18 08:26:28;;;;;;;26.63;10.27;;;;;;;6.59;85.55;103873.25;4993195;28;20030;-61
2022/01/18 08:28:53;;;;;;;29.20;10.35;;;;;;;6.56;85.51;103866.06;4993463;28;20030;-61
2022/01/18 08:31:19;;;;;;;25.85;9.32;;;;;;;6.55;86.16;103879.06;4993285;28;20025;-61
2022/01/18 08:33:45;;;;;;;30.13;10.45;;;;;;;6.58;85.76;103867.06;4993291;28;20065;-61
2022/01/18 08:36:10;;;;;;;22.70;9.15;;;;;;;6.67;85.77;103869.47;4993281;28;20061;-61
2022/01/18 08:38:37;;;;;;;24.83;9.80;;;;;;;6.67;86.40;103870.38;4993383;28;20023;-60
2022/01/18 08:41:03;;;;;;;26.35;9.63;;;;;;;6.72;86.43;103868.09;4993120;28;20022;-60
2022/01/18 08:43:33;;;;;;;25.23;9.10;;;;;;;6.74;86.36;103858.63;4993220;28;20476;-61
2022/01/18 08:45:59;;;;;;;25.15;9.48;;;;;;;6.73;85.52;103869.97;4993213;28;20073;-60
2022/01/18 08:48:25;;;;;;;29.30;9.68;;;;;;;6.73;86.01;103864.69;4993233;28;20030;-61
2022/01/18 08:50:51;;;;;;;27.05;9.43;;;;;;;6.72;85.68;103855.91;4993185;28;20480;-61
2022/01/18 08:53:16;;;;;;;28.20;9.25;;;;;;;6.74;85.91;103866.53;4993945;28;20042;-61
2022/01/18 08:55:42;;;;;;;29.13;10.32;;;;;;;6.77;86.05;103870.31;4996439;28;20050;-61
2022/01/18 08:58:08;;;;;;;33.67;10.63;;;;;;;6.83;86.10;103872.47;4996696;28;20136;-61
2022/01/18 09:00:34;;;;;;;28.38;10.18;;;;;;;6.87;85.81;103870.97;4996798;28;20035;-61
2022/01/18 09:03:00;;;;;;;31.08;10.55;;;;;;;6.87;86.72;103881.50;4996647;28;20121;-61
2022/01/18 09:05:26;;;;;;;30.80;10.00;;;;;;;6.84;86.21;103871.66;4996622;28;20399;-60
2022/01/18 09:07:52;;;;;;;28.33;9.88;;;;;;;6.86;86.47;103871.78;4996483;28;20026;-61
2022/01/18 09:10:19;;;;;;;27.00;9.65;;;;;;;6.94;86.43;103870.66;4996590;28;20030;-60
2022/01/18 09:12:45;;;;;;;24.77;8.57;;;;;;;6.95;86.64;103873.38;4996396;28;20042;-61
2022/01/18 09:15:12;;;;;;;23.23;8.27;;;;;;;6.94;86.81;103879.44;4996466;28;20030;-61
2022/01/18 09:17:38;;;;;;;25.35;8.43;;;;;;;6.95;86.74;103869.84;4996332;28;20105;-61
2022/01/18 09:20:06;;;;;;;24.92;9.23;;;;;;;6.94;86.61;103875.91;4996441;28;20121;-61
2022/01/18 09:22:38;;;;;;;25.58;8.95;;;;;;;6.99;86.56;103885.03;4996260;28;20490;-61
2022/01/18 09:25:06;;;;;;;24.27;9.82;;;;;;;7.06;86.54;103883.75;4996406;28;20046;-63
2022/01/18 09:27:32;;;;;;;27.25;10.07;;;;;;;7.09;86.33;103884.00;4996134;28;20034;-61
2022/01/18 09:29:58;;;;;;;32.42;10.40;;;;;;;7.07;86.27;103889.16;4996144;28;20073;-61
2022/01/18 09:32:24;;;;;;;27.48;10.02;;;;;;;7.05;86.58;103892.47;4996137;28;20057;-60
2022/01/18 09:34:50;;;;;;;31.88;11.18;;;;;;;7.03;87.79;103892.34;4996096;28;20108;-61
2022/01/18 09:37:16;;;;;;;29.77;10.32;;;;;;;7.09;87.23;103889.25;4995329;28;20045;-60
2022/01/18 09:39:41;;;;;;;26.38;10.13;;;;;;;7.12;87.04;103890.41;4996074;28;20034;-60
2022/01/18 09:42:08;;;;;;;27.33;10.57;;;;;;;7.16;86.87;103891.53;4995836;28;20022;-60
2022/01/18 09:44:33;;;;;;;28.42;11.02;;;;;;;7.16;86.29;103895.09;4995856;28;20026;-61
2022/01/18 09:46:58;;;;;;;25.45;11.00;;;;;;;7.14;86.71;103898.38;4995922;28;20026;-61
2022/01/18 09:49:24;;;;;;;34.83;11.50;;;;;;;7.14;86.83;103894.03;4995870;28;20038;-60
2022/01/18 09:51:50;;;;;;;32.35;11.50;;;;;;;7.14;87.36;103894.03;4995754;28;20042;-61
2022/01/18 09:54:17;;;;;;;34.70;11.88;;;;;;;7.15;86.60;103897.59;4995802;28;20053;-60
2022/01/18 09:56:43;;;;;;;32.53;12.20;;;;;;;7.17;87.33;103898.63;4995381;28;20038;-62
2022/01/18 09:59:09;;;;;;;38.78;12.20;;;;;;;7.21;87.22;103898.97;4995711;28;20399;-62
2022/01/18 10:01:35;;;;;;;30.35;12.38;;;;;;;7.27;87.05;103907.28;4995798;28;20037;-62
2022/01/18 10:04:26;;;;;;;38.63;13.15;;;;;;;7.36;86.85;103903.50;4995445;28;20034;-62
2022/01/18 10:06:58;;;;;;;35.53;13.15;;;;;;;7.37;86.67;103900.09;4995098;28;20479;-61
2022/01/18 10:09:25;;;;;;;32.30;12.13;;;;;;;7.46;86.86;103896.41;4995430;28;20463;-62
2022/01/18 10:12:13;;;;;;;33.45;12.55;;;;;;;7.49;86.95;103908.84;4995651;28;20041;-62
2022/01/18 10:15:00;;;;;;;29.10;12.48;;;;;;;7.60;87.05;103900.03;4995459;28;20034;-62
2022/01/18 10:17:37;;;;;;;32.40;13.05;;;;;;;7.67;87.19;103897.03;4995229;28;20062;-61
2022/01/18 10:20:08;;;;;;;34.20;13.43;;;;;;;7.75;87.56;103894.94;4995384;28;20057;-62
2022/01/18 10:22:42;;;;;;;32.97;13.75;;;;;;;7.82;86.70;103902.47;4995197;28;20061;-61
2022/01/18 10:25:16;;;;;;;34.53;13.80;;;;;;;7.92;87.05;103899.69;4995230;28;20030;-62
2022/01/18 10:27:43;;;;;;;30.27;14.13;;;;;;;7.97;86.11;103895.66;4995159;28;20092;-61
2022/01/18 10:30:15;;;;;;;32.72;14.60;;;;;;;8.07;86.72;103893.69;4995595;28;20515;-61
2022/01/18 10:32:42;;;;;;;33.83;14.55;;;;;;;8.08;85.63;103896.41;4994984;28;20034;-62
2022/01/18 10:35:09;;;;;;;33.40;13.55;;;;;;;8.15;86.25;103885.50;4995365;28;20035;-62
2022/01/18 10:37:41;;;;;;;30.52;13.80;;;;;;;8.18;86.22;103884.78;4977499;28;20125;-62
2022/01/18 10:40:16;;;;;;;35.45;13.82;;;;;;;8.21;85.79;103878.00;4995034;28;20026;-62
2022/01/18 10:42:48;;;;;;;33.40;13.27;;;;;;;8.24;86.14;103879.94;4994870;28;20392;-62
2022/01/18 10:45:19;;;;;;;33.00;12.80;;;;;;;8.33;85.33;103883.22;4994742;28;20065;-61
2022/01/18 10:48:15;;;;;;;26.05;13.25;;;;;;;8.47;86.17;103878.91;4994863;28;20400;-61
2022/01/18 10:50:43;;;;;;;25.65;12.75;;;;;;;8.59;85.21;103878.84;4896973;29;20041;-62
2022/01/18 10:53:12;;;;;;;29.90;11.93;;;;;;;8.64;83.73;103874.78;4896889;29;20060;-62
2022/01/18 10:55:39;;;;;;;35.35;12.50;;;;;;;8.69;83.25;103869.03;4896712;29;20128;-62
2022/01/18 10:58:13;;;;;;;32.05;12.63;;;;;;;8.80;83.53;103863.56;4878254;29;20089;-61
2022/01/18 11:00:39;;;;;;;32.63;11.98;;;;;;;8.88;83.34;103864.97;4878219;29;20185;-62
2022/01/18 11:03:06;;;;;;;31.60;11.73;;;;;;;8.94;82.58;103868.00;4877967;29;20443;-62
2022/01/18 11:05:34;;;;;;;32.15;12.95;;;;;;;8.93;82.47;103860.91;4878016;29;20061;-62
2022/01/18 11:08:04;;;;;;;29.60;11.57;;;;;;;9.03;82.28;103858.06;4877778;29;20052;-62
2022/01/18 11:10:48;;;;;;;32.97;11.75;;;;;;;9.10;81.95;103851.47;4877980;29;20109;-62
2022/01/18 11:13:24;;;;;;;27.90;11.07;;;;;;;9.17;82.09;103845.78;4878007;29;20041;-62
2022/01/18 11:15:53;;;;;;;29.23;10.77;;;;;;;9.38;80.97;103847.16;4877726;29;20392;-62
2022/01/18 11:18:29;;;;;;;28.00;10.25;;;;;;;9.61;79.66;103848.59;4877770;29;20040;-62
2022/01/18 11:20:56;;;;;;;30.85;11.00;;;;;;;9.84;80.02;103850.03;4877696;29;20049;-62
2022/01/18 11:23:23;;;;;;;28.42;11.02;;;;;;;10.03;79.11;103860.91;4877531;29;20029;-62
2022/01/18 11:25:50;;;;;;;34.20;11.48;;;;;;;10.19;78.20;103846.94;4877651;29;20032;-62
2022/01/18 11:28:16;;;;;;;32.38;10.88;;;;;;;10.51;77.57;103851.50;4974722;28;20500;-61
2022/01/18 11:30:44;;;;;;;27.67;10.80;;;;;;;10.85;78.14;103849.94;4974693;28;20034;-62
2022/01/18 11:33:13;;;;;;;31.40;11.50;;;;;;;11.22;75.46;103843.28;4974593;28;20027;-61
2022/01/18 11:35:48;;;;;;;35.67;10.90;;;;;;;11.59;74.82;103834.69;4974542;28;20035;-62
2022/01/18 11:38:49;;;;;;;22.20;9.82;;;;;;;11.98;74.55;103828.00;4974496;28;20031;-61
2022/01/18 11:41:29;;;;;;;27.77;10.32;;;;;;;12.41;72.38;103822.28;4974504;28;20085;-62
2022/01/18 11:43:56;;;;;;;28.30;9.88;;;;;;;12.53;69.62;103829.94;4974263;28;20078;-62
2022/01/18 11:46:27;;;;;;;28.95;9.70;;;;;;;12.84;69.96;103827.06;4974609;28;20034;-61
2022/01/18 11:49:14;;;;;;;26.48;9.15;;;;;;;13.05;69.70;103821.91;4974503;28;20101;-62
2022/01/18 11:51:48;;;;;;;29.42;9.60;;;;;;;13.19;68.36;103823.50;4974234;28;20483;-62
2022/01/18 11:54:30;;;;;;;24.92;8.73;;;;;;;13.28;66.65;103818.66;4974315;28;20034;-62
2022/01/18 11:56:55;;;;;;;24.40;9.25;;;;;;;13.41;66.02;103824.53;4984641;28;20049;-62
2022/01/18 11:59:36;;;;;;;24.30;7.38;;;;;;;13.28;64.69;103825.72;4993658;28;20027;-62
2022/01/18 12:02:05;;;;;;;22.10;8.43;;;;;;;13.40;64.55;103826.25;4993571;28;20407;-62
2022/01/18 12:04:49;;;;;;;27.65;8.63;;;;;;;13.42;66.03;103827.25;4993579;28;20038;-62
2022/01/18 12:07:39;;;;;;;21.73;8.25;;;;;;;13.72;67.77;103817.13;4993559;28;20110;-61
2022/01/18 12:10:08;;;;;;;23.85;8.05;;;;;;;13.86;62.70;103816.84;4993627;28;20034;-61
2022/01/18 12:12:40;;;;;;;27.08;8.02;;;;;;;13.50;62.39;103811.69;4976081;28;20069;-61
2022/01/18 12:15:29;;;;;;;25.13;7.83;;;;;;;13.60;65.23;103818.31;4993817;28;20027;-62
2022/01/18 12:17:58;;;;;;;23.05;7.40;;;;;;;13.55;61.71;103814.56;4993635;28;20042;-62
2022/01/18 12:20:37;;;;;;;23.70;8.27;;;;;;;13.73;63.70;103808.31;4993584;28;20042;-62
2022/01/18 12:23:08;;;;;;;21.13;7.78;;;;;;;14.04;61.68;103807.91;4993213;28;20040;-62
2022/01/18 12:25:54;;;;;;;23.50;8.27;;;;;;;14.49;60.60;103801.91;4993443;28;20085;-62
2022/01/18 12:34:29;;;;;;;24.20;6.68;;;;;;;14.62;60.47;103798.91;4997190;28;20026;-62
2022/01/18 12:37:20;;;;;;;20.73;6.63;;;;;;;14.37;59.57;103791.59;4918090;29;20083;-62
2022/01/18 12:45:20;;;;;;;20.98;6.72;;;;;;;14.88;59.77;103785.75;4918124;29;20044;-62